Snow/Ice From: 16-12-2017 16:00 Until: 17-12-2017 16:00 warning for: Snow/Ice Level: Yellow info button

Although rather usual in this region, locally or potentially dangerous phenomena are expected. (such as local winds, summer thunderstorms, rising streams or high waves) Be aware and pay attention to the latest weather updates, especially if you carry out activities exposed to weather or close to a stream or shoreline. 


Meteo18 Weather Cam more information Meteo18 Weather Cam


Thunder radar more information blitzortung!


warning for Snow/Ice more information rain snow radar


Visit our other weather sites:

Template documentation
and downloads

And another site



Weather Underground History page Text

Daily Summary for March 29, 2017 Units:  English    Metric   Both
« Previous Day
Next Day »
Daily Weekly Monthly Yearly Custom
  High: Low: Average:
Temperature: 69.1 °F 40.6 °F 55 °F
Dew Point: 51.1 °F 39.4 °F 44.6 °F
Humidity: 96 % 40 % 71 %
Wind Speed: 6 mph 0 mph 0.7 mph
Wind Gust: 8 mph - -
Wind:- - SW
Pressure: 30.4 in 30.3 in -
Precipitation: 0 in    
Historical Graphs
 
 
Tabular Data for March 29, 2017
Time Temperature Dew Point Pressure Wind Wind Speed Wind Gust Humidity Rainfall Rate (Hourly)
00:02 50.5 °F 45 °F 30.4 in Calm   1 mph 81 % 0 in
00:12 50.5 °F 44.6 °F 30.4 in Calm   1 mph 80 % 0 in
00:17 50.2 °F 44.2 °F 30.4 in Calm     80 % 0 in
00:22 49.8 °F 43.9 °F 30.4 in Calm     80 % 0 in
00:32 49.1 °F 43.9 °F 30.4 in Calm     82 % 0 in
00:42 48.9 °F 44.1 °F 30.4 in Calm     83 % 0 in
00:47 48.7 °F 44.1 °F 30.4 in Calm     84 % 0 in
00:52 48.9 °F 44.2 °F 30.4 in Calm     84 % 0 in
00:59 48.9 °F 44.1 °F 30.4 in Calm     83 % 0 in
01:07 49.3 °F 44.4 °F 30.4 in Calm   1 mph 83 % 0 in
01:12 49.1 °F 43.9 °F 30.4 in Calm   1 mph 82 % 0 in
01:17 48.6 °F 43.3 °F 30.4 in Calm   1 mph 82 % 0 in
01:22 48.4 °F 43.7 °F 30.4 in Calm     84 % 0 in
01:32 48.7 °F 44.1 °F 30.4 in Calm     84 % 0 in
01:42 48.6 °F 43.7 °F 30.4 in Calm     83 % 0 in
01:47 48 °F 43.2 °F 30.4 in Calm     83 % 0 in
01:52 47.8 °F 43.2 °F 30.4 in Calm     84 % 0 in
01:57 47.5 °F 43.2 °F 30.4 in Calm     85 % 0 in
02:02 47.1 °F 42.8 °F 30.4 in Calm     85 % 0 in
02:07 47.1 °F 43.2 °F 30.4 in Calm     86 % 0 in
02:12 46.8 °F 42.8 °F 30.4 in Calm     86 % 0 in
02:17 46.6 °F 43 °F 30.4 in Calm     87 % 0 in
02:22 46.8 °F 43.3 °F 30.4 in Calm     88 % 0 in
02:32 46.9 °F 43.3 °F 30.4 in Calm     87 % 0 in
02:42 46.2 °F 42.8 °F 30.4 in Calm     88 % 0 in
02:52 46.6 °F 43.5 °F 30.4 in Calm     89 % 0 in
02:57 46.9 °F 43.5 °F 30.4 in Calm     88 % 0 in
03:02 47.1 °F 43.7 °F 30.4 in Calm     88 % 0 in
03:12 47.3 °F 43.7 °F 30.4 in Calm     87 % 0 in
03:17 46.9 °F 43.3 °F 30.4 in Calm     87 % 0 in
03:22 46.8 °F 43.2 °F 30.4 in Calm     87 % 0 in
03:32 46 °F 42.6 °F 30.4 in Calm     88 % 0 in
03:42 45.1 °F 42.1 °F 30.4 in Calm     89 % 0 in
03:47 44.8 °F 41.7 °F 30.4 in Calm     89 % 0 in
03:52 44.8 °F 42.1 °F 30.4 in Calm     90 % 0 in
03:57 44.4 °F 41.7 °F 30.4 in Calm     90 % 0 in
04:02 44.4 °F 41.9 °F 30.4 in Calm     91 % 0 in
04:12 44.4 °F 41.9 °F 30.4 in Calm     91 % 0 in
04:17 44.4 °F 41.9 °F 30.4 in Calm     91 % 0 in
04:22 44.2 °F 41.7 °F 30.4 in Calm     91 % 0 in
04:32 43.9 °F 41.4 °F 30.4 in Calm     91 % 0 in
04:42 43.5 °F 41.4 °F 30.4 in Calm     92 % 0 in
04:52 43 °F 40.8 °F 30.4 in Calm     92 % 0 in
04:57 42.8 °F 40.6 °F 30.4 in Calm     92 % 0 in
05:02 42.6 °F 40.8 °F 30.4 in Calm     93 % 0 in
05:07 42.6 °F 40.8 °F 30.4 in Calm     93 % 0 in
05:12 42.6 °F 40.8 °F 30.4 in Calm     93 % 0 in
05:17 42.8 °F 41.2 °F 30.4 in Calm     94 % 0 in
05:22 42.4 °F 40.6 °F 30.4 in Calm     93 % 0 in
05:32 42.3 °F 40.6 °F 30.4 in Calm   1 mph 94 % 0 in
05:42 42.4 °F 40.8 °F 30.4 in Calm   1 mph 94 % 0 in
05:47 42.4 °F 40.8 °F 30.4 in Calm     94 % 0 in
05:52 42.4 °F 40.8 °F 30.4 in Calm     94 % 0 in
06:02 42.4 °F 40.8 °F 30.4 in Calm   1 mph 94 % 0 in
06:07 42.3 °F 40.6 °F 30.4 in Calm   1 mph 94 % 0 in
06:12 42.3 °F 40.6 °F 30.4 in Calm   1 mph 94 % 0 in
06:17 41.7 °F 39.9 °F 30.4 in Calm   1 mph 93 % 0 in
06:22 41.4 °F 39.7 °F 30.4 in Calm   1 mph 94 % 0 in
06:32 41.7 °F 40.5 °F 30.4 in North 1 mph 1 mph 95 % 0 in
06:37 41.7 °F 40.5 °F 30.4 in North 2 mph 2 mph 95 % 0 in
06:42 41.9 °F 40.6 °F 30.4 in Calm   2 mph 95 % 0 in
06:47 41.7 °F 40.1 °F 30.4 in North 1 mph 2 mph 94 % 0 in
06:52 41.5 °F 40.3 °F 30.4 in Calm   2 mph 95 % 0 in
06:57 41.5 °F 40.3 °F 30.4 in Calm   1 mph 95 % 0 in
07:02 41.2 °F 39.6 °F 30.4 in Calm   1 mph 94 % 0 in
07:12 41.2 °F 39.9 °F 30.4 in Calm     95 % 0 in
07:22 40.8 °F 39.6 °F 30.4 in Calm     95 % 0 in
07:32 41.2 °F 40.1 °F 30.4 in Calm     96 % 0 in
07:42 40.8 °F 39.6 °F 30.4 in Calm     95 % 0 in
07:47 40.6 °F 39.4 °F 30.4 in Calm     95 % 0 in
07:52 40.8 °F 39.6 °F 30.4 in Calm   1 mph 95 % 0 in
07:57 41.2 °F 39.9 °F 30.4 in Calm   1 mph 95 % 0 in
08:02 41.5 °F 40.5 °F 30.4 in Calm   1 mph 96 % 0 in
08:12 41.5 °F 40.3 °F 30.4 in Calm     95 % 0 in
08:17 41.7 °F 40.5 °F 30.4 in Calm     95 % 0 in
08:22 42.1 °F 40.8 °F 30.4 in Calm     95 % 0 in
08:27 42.4 °F 41.2 °F 30.4 in Calm     95 % 0 in
08:32 43.9 °F 42.8 °F 30.4 in Calm     96 % 0 in
08:42 45.3 °F 44.1 °F 30.4 in Calm     95 % 0 in
08:52 46 °F 44.4 °F 30.4 in Calm     94 % 0 in
09:02 49.3 °F 47.7 °F 30.4 in Calm     94 % 0 in
09:12 51.3 °F 48.4 °F 30.4 in Calm     90 % 0 in
09:17 49.8 °F 45.1 °F 30.4 in SE 1 mph   84 % 0 in
09:22 48.6 °F 44.2 °F 30.4 in ESE 1 mph 2 mph 85 % 0 in
09:27 48 °F 44.4 °F 30.4 in SE 1 mph 2 mph 87 % 0 in
09:32 47.7 °F 44.2 °F 30.4 in SE 1 mph 2 mph 88 % 0 in
09:37 47.7 °F 44.6 °F 30.4 in Calm   2 mph 89 % 0 in
09:42 48 °F 45 °F 30.4 in Calm   2 mph 89 % 0 in
09:52 49.8 °F 46 °F 30.4 in Calm   1 mph 87 % 0 in
10:02 50.7 °F 46.8 °F 30.4 in Calm     86 % 0 in
10:07 51.4 °F 47.1 °F 30.4 in Calm     85 % 0 in
10:12 52 °F 47.3 °F 30.4 in Calm     84 % 0 in
10:17 52.7 °F 48 °F 30.4 in Calm     84 % 0 in
10:22 53.4 °F 48.4 °F 30.4 in Calm     83 % 0 in
10:32 54.9 °F 49.1 °F 30.4 in SE 1 mph   81 % 0 in
10:42 55.6 °F 48.6 °F 30.4 in Calm   1 mph 77 % 0 in
10:52 55.2 °F 48.6 °F 30.4 in Calm   2 mph 78 % 0 in
11:02 55.6 °F 48.6 °F 30.4 in ESE 1 mph 3 mph 77 % 0 in
11:12 56.5 °F 49.3 °F 30.4 in Calm   3 mph 77 % 0 in
11:17 56.8 °F 49.3 °F 30.4 in SE 1 mph 3 mph 76 % 0 in
11:22 57.2 °F 49.6 °F 30.4 in East 1 mph 3 mph 76 % 0 in
11:32 58.6 °F 50.7 °F 30.4 in SE 2 mph 3 mph 75 % 0 in
11:37 59 °F 50.7 °F 30.4 in SE 3 mph 3 mph 74 % 0 in
11:42 59 °F 50.4 °F 30.4 in ESE 3 mph 4 mph 73 % 0 in
11:47 59.4 °F 51.1 °F 30.4 in ESE 1 mph 4 mph 74 % 0 in
11:52 60.3 °F 50.4 °F 30.4 in SE 3 mph 4 mph 70 % 0 in
12:02 61 °F 50.4 °F 30.4 in SSE 3 mph 4 mph 68 % 0 in
12:07 61.3 °F 50.4 °F 30.4 in SSE 1 mph 4 mph 67 % 0 in
12:12 61.5 °F 50.5 °F 30.4 in ESE 3 mph 4 mph 67 % 0 in
12:17 61.3 °F 49.8 °F 30.4 in Calm   4 mph 66 % 0 in
12:22 61.9 °F 50.4 °F 30.4 in SSE 1 mph 4 mph 66 % 0 in
12:32 62.2 °F 48.2 °F 30.4 in SSW 2 mph 4 mph 60 % 0 in
12:37 62.4 °F 48.7 °F 30.4 in South 3 mph 6 mph 61 % 0 in
12:42 63 °F 48.4 °F 30.4 in SSW 1 mph 6 mph 59 % 0 in
12:47 63.1 °F 48.2 °F 30.4 in SW 1 mph 6 mph 58 % 0 in
12:52 63.1 °F 49.1 °F 30.4 in SW 2 mph 4 mph 60 % 0 in
13:02 63.3 °F 49.6 °F 30.4 in SSE 4 mph 4 mph 61 % 0 in
13:07 63.3 °F 49.3 °F 30.4 in SSW 3 mph 4 mph 60 % 0 in
13:17 63.5 °F 48.9 °F 30.4 in ESE 3 mph 6 mph 59 % 0 in
13:22 63.9 °F 48.7 °F 30.4 in SE 3 mph 7 mph 58 % 0 in
13:32 63.5 °F 47.1 °F 30.4 in SSW 2 mph 6 mph 55 % 0 in
13:37 64 °F 48 °F 30.4 in WSW 1 mph 6 mph 56 % 0 in
13:42 64.4 °F 47.5 °F 30.4 in SSW 3 mph 6 mph 54 % 0 in
13:52 65.1 °F 46 °F 30.4 in SSE 2 mph 5 mph 50 % 0 in
13:57 65.1 °F 44.4 °F 30.4 in SW 2 mph 5 mph 47 % 0 in
14:02 65.3 °F 45.7 °F 30.4 in WSW 2 mph 5 mph 49 % 0 in
14:12 65.5 °F 43.5 °F 30.4 in SSW 3 mph 5 mph 45 % 0 in
14:17 65.1 °F 46 °F 30.4 in SSW 4 mph 5 mph 50 % 0 in
14:22 65.3 °F 44.1 °F 30.4 in Calm   7 mph 46 % 0 in
14:32 66 °F 46.4 °F 30.4 in ENE 2 mph 7 mph 49 % 0 in
14:37 66 °F 46.8 °F 30.4 in Calm   5 mph 50 % 0 in
14:42 66.2 °F 45.3 °F 30.4 in East 4 mph 5 mph 47 % 0 in
14:52 65.8 °F 45.7 °F 30.4 in East 3 mph 6 mph 48 % 0 in
14:57 66 °F 44.1 °F 30.4 in SSW 3 mph 6 mph 45 % 0 in
15:02 66.2 °F 44.8 °F 30.4 in NE 3 mph 6 mph 46 % 0 in
15:12 66.6 °F 45.1 °F 30.4 in SSW 3 mph 6 mph 46 % 0 in
15:17 66.7 °F 45.3 °F 30.4 in SE 2 mph 3 mph 46 % 0 in
15:22 66.4 °F 45 °F 30.4 in SE 3 mph 6 mph 46 % 0 in
15:27 66.6 °F 45.1 °F 30.4 in South 3 mph 6 mph 46 % 0 in
15:32 66.7 °F 44.8 °F 30.4 in SSE 2 mph 6 mph 45 % 0 in
15:42 66.4 °F 45 °F 30.4 in WNW 2 mph 7 mph 46 % 0 in
15:47 66.6 °F 44.1 °F 30.3 in WSW 4 mph 7 mph 44 % 0 in
15:52 66 °F 44.6 °F 30.3 in SSW 2 mph 8 mph 46 % 0 in
15:57 66.7 °F 45.3 °F 30.3 in ESE 3 mph 8 mph 46 % 0 in
16:02 67.1 °F 44.4 °F 30.3 in South 4 mph 8 mph 44 % 0 in
16:12 66.7 °F 44.1 °F 30.3 in WSW 2 mph 6 mph 44 % 0 in
16:17 66.7 °F 44.1 °F 30.3 in SW 6 mph 7 mph 44 % 0 in
16:22 66.9 °F 43.7 °F 30.3 in SSE 3 mph 7 mph 43 % 0 in
16:32 67.8 °F 44.4 °F 30.3 in WSW 1 mph 7 mph 43 % 0 in
16:42 68.4 °F 43.7 °F 30.3 in NNE 1 mph 4 mph 41 % 0 in
16:47 68.9 °F 44.2 °F 30.3 in SSE 1 mph 3 mph 41 % 0 in
16:52 69.1 °F 45.7 °F 30.3 in Calm   3 mph 43 % 0 in
16:57 69.1 °F 43.7 °F 30.3 in WSW 3 mph 3 mph 40 % 0 in
17:02 68.4 °F 44.4 °F 30.3 in Calm   3 mph 42 % 0 in
17:12 67.6 °F 43.7 °F 30.3 in WSW 3 mph 4 mph 42 % 0 in
17:17 67.8 °F 44.4 °F 30.3 in West 1 mph 6 mph 43 % 0 in
17:22 68.2 °F 44.8 °F 30.3 in Calm   6 mph 43 % 0 in
17:32 68.2 °F 45.5 °F 30.3 in Calm   5 mph 44 % 0 in
17:42 68.2 °F 46 °F 30.3 in Calm   3 mph 45 % 0 in
17:52 68.4 °F 45.7 °F 30.3 in Calm   3 mph 44 % 0 in
17:57 68.5 °F 46.4 °F 30.3 in Calm   3 mph 45 % 0 in
18:02 68.4 °F 45.7 °F 30.3 in Calm   4 mph 44 % 0 in
18:12 68 °F 45.3 °F 30.3 in NNW 1 mph 4 mph 44 % 0 in
18:17 68.4 °F 45.7 °F 30.3 in NW 1 mph 3 mph 44 % 0 in
18:22 68.4 °F 46.2 °F 30.3 in WNW 2 mph 3 mph 45 % 0 in
18:32 68.2 °F 46.6 °F 30.3 in West 1 mph 3 mph 46 % 0 in
18:42 67.6 °F 46 °F 30.3 in West 1 mph 6 mph 46 % 0 in
18:52 67.5 °F 46 °F 30.3 in West 1 mph 6 mph 46 % 0 in
19:02 67.6 °F 46 °F 30.3 in West 1 mph 5 mph 46 % 0 in
19:12 67.6 °F 46.8 °F 30.3 in Calm   4 mph 47 % 0 in
19:17 67.8 °F 46.9 °F 30.3 in Calm   4 mph 47 % 0 in
19:22 67.1 °F 46.2 °F 30.3 in Calm   4 mph 47 % 0 in
19:32 66.6 °F 45.7 °F 30.3 in Calm   1 mph 47 % 0 in
19:42 66 °F 45.7 °F 30.3 in Calm     48 % 0 in
19:52 65.1 °F 45.5 °F 30.3 in Calm     49 % 0 in
19:57 64.9 °F 45.3 °F 30.3 in Calm     49 % 0 in
20:02 64.6 °F 45.5 °F 30.3 in Calm     50 % 0 in
20:07 64.2 °F 45.1 °F 30.3 in Calm     50 % 0 in
20:12 64 °F 45 °F 30.3 in Calm     50 % 0 in
20:17 63.9 °F 45.3 °F 30.3 in Calm     51 % 0 in
20:22 63.5 °F 45.5 °F 30.3 in Calm     52 % 0 in
20:27 63.1 °F 45.7 °F 30.3 in Calm     53 % 0 in
20:32 62.6 °F 45.1 °F 30.3 in Calm     53 % 0 in
20:42 61.3 °F 46 °F 30.3 in North 1 mph   57 % 0 in
20:52 60.6 °F 45.3 °F 30.3 in Calm   2 mph 57 % 0 in
20:57 60.3 °F 45.5 °F 30.3 in Calm   2 mph 58 % 0 in
21:02 60.1 °F 45.3 °F 30.3 in NNW 1 mph 1 mph 58 % 0 in
21:07 59.9 °F 45.1 °F 30.3 in NNW 1 mph 2 mph 58 % 0 in
21:17 59.5 °F 45.7 °F 30.3 in Calm   2 mph 60 % 0 in
21:22 59.2 °F 45.3 °F 30.3 in NNW 1 mph 1 mph 60 % 0 in
21:32 58.6 °F 45.3 °F 30.3 in NNW 1 mph 1 mph 61 % 0 in
21:42 58.3 °F 45 °F 30.3 in North 1 mph 2 mph 61 % 0 in
21:47 57.7 °F 44.8 °F 30.3 in NNW 1 mph 3 mph 62 % 0 in
21:52 57.4 °F 45 °F 30.3 in Calm   3 mph 63 % 0 in
21:57 57.4 °F 44.4 °F 30.3 in North 1 mph 3 mph 62 % 0 in
22:02 56.8 °F 43.9 °F 30.3 in NNW 2 mph 2 mph 62 % 0 in
22:12 55.6 °F 44.4 °F 30.3 in WNW 1 mph 2 mph 66 % 0 in
22:22 55.2 °F 43.7 °F 30.3 in Calm   2 mph 65 % 0 in
22:27 55.4 °F 44.2 °F 30.3 in Calm   1 mph 66 % 0 in
22:32 55 °F 43.9 °F 30.3 in Calm   1 mph 66 % 0 in
22:42 54.1 °F 44.2 °F 30.3 in WNW 1 mph 1 mph 69 % 0 in
22:47 54 °F 44.8 °F 30.3 in WNW 1 mph 1 mph 71 % 0 in
22:52 53.6 °F 45.1 °F 30.3 in Calm   1 mph 73 % 0 in
22:57 53.4 °F 45.3 °F 30.3 in WNW 1 mph 1 mph 74 % 0 in
23:02 53.4 °F 45.3 °F 30.3 in WNW 1 mph 1 mph 74 % 0 in
23:12 54.3 °F 43.5 °F 30.3 in Calm   1 mph 67 % 0 in
23:17 54.3 °F 43.5 °F 30.3 in Calm   1 mph 67 % 0 in
23:22 54.1 °F 43.3 °F 30.3 in Calm   1 mph 67 % 0 in
23:32 53.6 °F 43.3 °F 30.3 in North 1 mph 1 mph 68 % 0 in
23:37 53.8 °F 43.5 °F 30.3 in Calm   1 mph 68 % 0 in
23:42 53.8 °F 43.9 °F 30.3 in North 1 mph 1 mph 69 % 0 in
23:47 54 °F 44.1 °F 30.3 in North 1 mph 1 mph 69 % 0 in
23:52 54.1 °F 43.9 °F 30.3 in Calm   2 mph 68 % 0 in
23:57 54.1 °F 43.9 °F 30.3 in NNW 1 mph 2 mph 68 % 0 in
Meteo18
Compliments of Weather Underground - 4 mb

Script developed by  Jim McMurry - jmcmurry@mwt.net Adapted for the template by  Wim van der Kuil - Leuven-Template.eu

You find our weather info also at:

European Weather Network

Weather Underground

Equipment we use:

Weather-station
Davis Vue

Weather-program
Meteohub

Weather-server
Raspberry PI 2 B+

Provider
1 and 1

Davis Vue

Meteohub

Raspberry PI 2 B+

1 and 1